Time;durP1;ratioP1;P1;durP2;ratioP2;P2;SDS_P1;SDS_P2;PMS_P1;PMS_P2;Temp;Humidity;BMP_temperature;BMP_pressure;BME280_temperature;BME280_humidity;BME280_pressure;Samples;Min_cycle;Max_cycle;Signal;HPM_P1;HPM_P2
2021/09/18 00:01:53;;;;;;;41.87;37.87;;;12.50;99.90;;;;;;4979819;28;20461;-69
2021/09/18 00:04:22;;;;;;;40.83;37.20;;;12.50;99.90;;;;;;4985927;28;20466;-69
2021/09/18 00:06:49;;;;;;;40.43;36.70;;;12.50;99.90;;;;;;4990594;28;20471;-70
2021/09/18 00:09:17;;;;;;;41.73;37.73;;;12.50;99.90;;;;;;4988400;28;20497;-70
2021/09/18 00:11:44;;;;;;;39.77;35.87;;;12.50;99.90;;;;;;4980943;28;20455;-69
2021/09/18 00:14:13;;;;;;;41.57;37.60;;;12.40;99.90;;;;;;4985501;28;20793;-70
2021/09/18 00:16:41;;;;;;;40.57;36.87;;;12.40;99.90;;;;;;4978792;28;20466;-70
2021/09/18 00:19:08;;;;;;;43.13;38.97;;;12.40;99.90;;;;;;4979586;28;20470;-70
2021/09/18 00:21:36;;;;;;;44.47;40.03;;;12.40;99.90;;;;;;4989796;28;20466;-70
2021/09/18 00:24:03;;;;;;;43.63;39.03;;;12.40;99.90;;;;;;4978188;28;20466;-71
2021/09/18 00:26:32;;;;;;;40.37;36.30;;;12.30;99.90;;;;;;4978320;28;20956;-71
2021/09/18 00:28:59;;;;;;;43.80;39.50;;;12.30;99.90;;;;;;4981467;28;20502;-70
2021/09/18 00:31:26;;;;;;;44.10;39.87;;;12.20;99.90;;;;;;4979732;28;20551;-70
2021/09/18 00:33:53;;;;;;;39.90;36.20;;;12.20;99.90;;;;;;4986860;28;20474;-69
2021/09/18 00:36:21;;;;;;;42.83;38.50;;;12.10;99.90;;;;;;4981106;28;20455;-70
2021/09/18 00:38:50;;;;;;;42.10;38.20;;;12.10;99.90;;;;;;4985647;28;20537;-71
2021/09/18 00:41:17;;;;;;;45.87;41.37;;;12.00;99.90;;;;;;4976593;28;20453;-70
2021/09/18 00:43:51;;;;;;;42.13;38.43;;;12.00;99.90;;;;;;4978324;28;20462;-70
2021/09/18 00:46:18;;;;;;;43.60;39.17;;;12.00;99.90;;;;;;4987679;28;20462;-70
2021/09/18 00:48:45;;;;;;;45.43;40.97;;;11.90;99.90;;;;;;4986075;28;20713;-70
2021/09/18 00:51:12;;;;;;;44.40;39.80;;;11.90;99.90;;;;;;4992341;28;20812;-70
2021/09/18 00:53:41;;;;;;;47.50;42.33;;;11.80;99.90;;;;;;4979353;28;20487;-70
2021/09/18 00:56:11;;;;;;;41.70;37.77;;;11.80;99.90;;;;;;4975838;28;20928;-70
2021/09/18 00:58:40;;;;;;;45.47;39.10;;;11.80;99.90;;;;;;4989081;28;20820;-70
2021/09/18 01:01:07;;;;;;;42.30;37.70;;;11.70;99.90;;;;;;4986714;28;20471;-70
2021/09/18 01:03:35;;;;;;;47.80;42.90;;;11.70;99.90;;;;;;4982204;28;20453;-70
2021/09/18 01:06:03;;;;;;;53.67;47.87;;;11.70;99.90;;;;;;4982632;28;20478;-70
2021/09/18 01:08:32;;;;;;;47.30;40.67;;;11.70;99.90;;;;;;4979663;28;22368;-70
2021/09/18 01:11:00;;;;;;;53.40;44.80;;;11.80;99.90;;;;;;4977347;28;20460;-70
2021/09/18 01:13:28;;;;;;;51.00;45.50;;;11.80;99.90;;;;;;4989395;28;20551;-70
2021/09/18 01:15:55;;;;;;;46.23;41.57;;;11.80;99.90;;;;;;4986455;28;20451;-70
2021/09/18 01:18:23;;;;;;;50.47;44.83;;;11.80;99.90;;;;;;4984369;28;20462;-70
2021/09/18 01:20:51;;;;;;;56.70;49.10;;;11.80;99.90;;;;;;4977866;28;21251;-70
2021/09/18 01:23:21;;;;;;;48.13;41.77;;;11.80;99.90;;;;;;4972417;28;20463;-70
2021/09/18 01:25:50;;;;;;;42.77;38.50;;;11.80;99.90;;;;;;4983591;28;20548;-71
2021/09/18 01:28:18;;;;;;;44.97;40.67;;;11.70;99.90;;;;;;4979767;28;20817;-70
2021/09/18 01:30:47;;;;;;;43.33;38.97;;;11.70;99.90;;;;;;4983716;28;20465;-71
2021/09/18 01:33:14;;;;;;;47.70;43.10;;;11.60;99.90;;;;;;4983178;28;20461;-70
2021/09/18 01:35:43;;;;;;;49.20;43.80;;;11.60;99.90;;;;;;4983857;28;20548;-70
2021/09/18 01:38:12;;;;;;;62.60;48.33;;;11.50;99.90;;;;;;4984304;28;20972;-71
2021/09/18 01:40:42;;;;;;;50.60;45.33;;;11.50;99.90;;;;;;4981893;28;20541;-70
2021/09/18 01:43:10;;;;;;;49.13;43.80;;;11.50;99.90;;;;;;4983841;28;20462;-70
2021/09/18 01:45:38;;;;;;;56.10;47.83;;;11.50;99.90;;;;;;4982122;28;20466;-70
2021/09/18 01:48:08;;;;;;;67.47;47.40;;;11.50;99.90;;;;;;4990964;28;20466;-70
2021/09/18 01:50:41;;;;;;;51.73;46.30;;;11.50;99.90;;;;;;4992178;28;20498;-70
2021/09/18 01:53:12;;;;;;;52.13;43.90;;;11.50;99.90;;;;;;4986312;28;20882;-71
2021/09/18 01:55:41;;;;;;;51.47;45.63;;;11.40;99.90;;;;;;4997764;28;20451;-69
2021/09/18 01:58:08;;;;;;;49.80;44.50;;;11.40;99.90;;;;;;4996671;28;20461;-70
2021/09/18 02:00:39;;;;;;;50.60;44.93;;;11.40;99.90;;;;;;4994526;28;20458;-69
2021/09/18 02:03:06;;;;;;;49.10;43.47;;;11.30;99.90;;;;;;4990539;28;20465;-70
2021/09/18 02:05:33;;;;;;;48.73;43.90;;;11.30;99.90;;;;;;4987554;28;20482;-70
2021/09/18 02:08:01;;;;;;;56.40;44.43;;;11.30;99.90;;;;;;4988994;28;20458;-69
2021/09/18 02:10:29;;;;;;;54.33;43.60;;;11.30;99.90;;;;;;4983940;28;21042;-70
2021/09/18 02:12:59;;;;;;;48.60;42.37;;;11.30;99.90;;;;;;4987856;28;20465;-70
2021/09/18 02:15:26;;;;;;;50.00;44.70;;;11.30;99.90;;;;;;4991695;28;20471;-69
2021/09/18 02:17:55;;;;;;;49.67;44.10;;;11.30;99.90;;;;;;4995670;28;20489;-71
2021/09/18 02:20:24;;;;;;;49.73;44.60;;;11.30;99.90;;;;;;4986769;28;20832;-70
2021/09/18 02:22:51;;;;;;;50.83;45.10;;;11.30;99.90;;;;;;4997256;28;20451;-70
2021/09/18 02:25:19;;;;;;;55.17;46.20;;;11.30;99.90;;;;;;4994799;28;20534;-70
2021/09/18 02:27:47;;;;;;;54.70;48.70;;;11.20;99.90;;;;;;4993746;28;20472;-70
2021/09/18 02:30:19;;;;;;;57.43;46.10;;;11.20;99.90;;;;;;4985365;28;20499;-69
2021/09/18 02:32:47;;;;;;;57.17;46.00;;;11.20;99.90;;;;;;4979470;28;20462;-71
2021/09/18 02:35:16;;;;;;;50.73;45.27;;;11.20;99.90;;;;;;4989415;28;20831;-69
2021/09/18 02:37:44;;;;;;;50.93;45.40;;;11.20;99.90;;;;;;4990815;28;20474;-70
2021/09/18 02:40:14;;;;;;;49.20;43.13;;;11.20;99.90;;;;;;4990579;28;20481;-71
2021/09/18 02:42:43;;;;;;;46.40;41.50;;;11.10;99.90;;;;;;4986125;28;20468;-69
2021/09/18 02:45:11;;;;;;;49.07;43.80;;;11.10;99.90;;;;;;4992261;28;20544;-69
2021/09/18 02:47:41;;;;;;;48.30;43.27;;;11.10;99.90;;;;;;4989414;28;20458;-70
2021/09/18 02:50:10;;;;;;;49.03;43.20;;;11.00;99.90;;;;;;4980799;28;20482;-69
2021/09/18 02:52:37;;;;;;;50.50;43.93;;;11.00;99.90;;;;;;4985236;28;20471;-69
2021/09/18 02:55:06;;;;;;;49.87;44.50;;;11.00;99.90;;;;;;4991739;28;20656;-71
2021/09/18 02:57:33;;;;;;;49.43;44.47;;;10.90;99.90;;;;;;4987142;28;20469;-70
2021/09/18 03:00:00;;;;;;;56.47;44.13;;;10.90;99.90;;;;;;4987302;28;20464;-69
2021/09/18 03:02:28;;;;;;;46.47;41.70;;;10.80;99.90;;;;;;4985016;28;20465;-71
2021/09/18 03:04:57;;;;;;;53.03;44.97;;;10.80;99.90;;;;;;4981176;28;20973;-69
2021/09/18 03:07:25;;;;;;;47.37;42.33;;;10.80;99.90;;;;;;4993397;28;21095;-69
2021/09/18 03:09:55;;;;;;;48.53;43.30;;;10.80;99.90;;;;;;4979244;28;20860;-71
2021/09/18 03:12:22;;;;;;;49.00;43.80;;;10.80;99.90;;;;;;4988982;28;20495;-70
2021/09/18 03:14:49;;;;;;;54.73;46.07;;;10.80;99.90;;;;;;4985066;28;20550;-70
2021/09/18 03:17:18;;;;;;;56.90;47.73;;;10.80;99.90;;;;;;4991682;28;20978;-71
2021/09/18 03:19:46;;;;;;;49.93;44.50;;;10.80;99.90;;;;;;4976965;28;20455;-69
2021/09/18 03:22:16;;;;;;;46.33;41.40;;;10.70;99.90;;;;;;4982889;28;20466;-70
2021/09/18 03:24:44;;;;;;;46.80;41.80;;;10.70;99.90;;;;;;4981909;28;20462;-70
2021/09/18 03:27:14;;;;;;;49.00;43.90;;;10.70;99.90;;;;;;4990605;28;20558;-70
2021/09/18 03:29:41;;;;;;;54.17;42.87;;;10.60;99.90;;;;;;4993018;28;20497;-70
2021/09/18 03:32:08;;;;;;;54.87;45.87;;;10.60;99.90;;;;;;4996159;28;20497;-69
2021/09/18 03:34:35;;;;;;;53.17;47.40;;;10.60;99.90;;;;;;4983835;28;20496;-69
2021/09/18 03:37:03;;;;;;;53.00;45.90;;;10.60;99.90;;;;;;4992984;28;20474;-69
2021/09/18 03:39:32;;;;;;;53.80;44.70;;;10.70;99.90;;;;;;4982541;28;20862;-69
2021/09/18 03:41:59;;;;;;;51.40;45.20;;;10.60;99.90;;;;;;4991146;28;20450;-71
2021/09/18 03:44:26;;;;;;;56.97;43.57;;;10.60;99.90;;;;;;4988742;28;20458;-70
2021/09/18 03:46:54;;;;;;;49.17;43.90;;;10.50;99.90;;;;;;4981140;28;20456;-69
2021/09/18 03:49:21;;;;;;;57.80;45.70;;;10.50;99.90;;;;;;4983658;28;20462;-71
2021/09/18 03:51:48;;;;;;;56.87;47.27;;;10.50;99.90;;;;;;4984754;28;20461;-69
2021/09/18 03:54:15;;;;;;;52.73;45.27;;;10.50;99.90;;;;;;4993751;28;20960;-70
2021/09/18 03:56:44;;;;;;;56.63;47.27;;;10.50;99.90;;;;;;4987790;28;21508;-69
2021/09/18 03:59:12;;;;;;;51.83;44.10;;;10.40;99.90;;;;;;4983907;28;20967;-69
2021/09/18 04:01:40;;;;;;;49.37;44.20;;;10.40;99.90;;;;;;4984311;28;20833;-69
2021/09/18 04:04:07;;;;;;;51.50;43.63;;;10.40;99.90;;;;;;4988011;28;20469;-69
2021/09/18 04:06:35;;;;;;;52.83;46.40;;;10.40;99.90;;;;;;4982047;28;20949;-70
2021/09/18 04:09:02;;;;;;;57.80;48.10;;;10.30;99.90;;;;;;4992782;28;20478;-70
2021/09/18 04:11:30;;;;;;;61.97;47.97;;;10.30;99.90;;;;;;4971247;28;20503;-69
2021/09/18 04:13:58;;;;;;;61.13;51.17;;;10.40;99.90;;;;;;4992047;28;20568;-69
2021/09/18 04:16:26;;;;;;;60.20;48.93;;;10.30;99.90;;;;;;4988860;28;20457;-70
2021/09/18 04:18:54;;;;;;;62.43;48.03;;;10.30;99.90;;;;;;4975123;28;20464;-68
2021/09/18 04:21:21;;;;;;;58.10;45.77;;;10.30;99.90;;;;;;4988393;28;20975;-70
2021/09/18 04:23:52;;;;;;;57.33;46.80;;;10.30;99.90;;;;;;4989905;28;21063;-70
2021/09/18 04:26:19;;;;;;;64.77;47.97;;;10.30;99.90;;;;;;4981125;28;20458;-70
2021/09/18 04:28:46;;;;;;;55.40;46.73;;;10.30;99.90;;;;;;4982015;28;20455;-69
2021/09/18 04:31:17;;;;;;;51.70;44.53;;;10.30;99.90;;;;;;4989859;28;20489;-69
2021/09/18 04:33:46;;;;;;;47.00;41.97;;;10.30;99.90;;;;;;4983545;28;20490;-69
2021/09/18 04:36:14;;;;;;;48.50;43.40;;;10.20;99.90;;;;;;4984539;28;20460;-69
2021/09/18 04:38:43;;;;;;;49.97;44.57;;;10.20;99.90;;;;;;4983557;28;20548;-69
2021/09/18 04:41:11;;;;;;;51.40;44.03;;;10.20;99.90;;;;;;4987671;28;20843;-68
2021/09/18 04:43:40;;;;;;;46.97;42.13;;;10.20;99.90;;;;;;4985280;28;20471;-69
2021/09/18 04:46:06;;;;;;;47.33;42.33;;;10.20;99.90;;;;;;4981512;28;20471;-69
2021/09/18 04:48:36;;;;;;;51.13;42.40;;;10.20;99.90;;;;;;4988375;28;20978;-69
2021/09/18 04:51:04;;;;;;;58.00;45.00;;;10.20;99.90;;;;;;4986078;28;20490;-71
2021/09/18 04:53:31;;;;;;;54.37;46.60;;;10.20;99.90;;;;;;4984429;28;20458;-69
2021/09/18 04:55:59;;;;;;;50.60;45.00;;;10.20;99.90;;;;;;4990910;28;20463;-69
2021/09/18 04:58:27;;;;;;;51.87;43.90;;;10.20;99.90;;;;;;4986307;28;20801;-69
2021/09/18 05:00:55;;;;;;;49.27;42.20;;;10.20;99.90;;;;;;4979040;28;21081;-69
2021/09/18 05:03:22;;;;;;;49.50;44.07;;;10.10;99.90;;;;;;4985801;28;20459;-69
2021/09/18 05:05:51;;;;;;;48.87;43.13;;;10.10;99.90;;;;;;4986855;28;20470;-69
2021/09/18 05:08:19;;;;;;;51.63;42.77;;;10.10;99.90;;;;;;4982831;28;20814;-69
2021/09/18 05:10:48;;;;;;;51.60;42.47;;;10.10;99.90;;;;;;4979648;28;20495;-69
2021/09/18 05:13:15;;;;;;;55.90;44.47;;;10.10;99.90;;;;;;4973708;28;20456;-70
2021/09/18 05:15:42;;;;;;;54.53;48.57;;;10.10;99.90;;;;;;4984244;28;20806;-69
2021/09/18 05:18:09;;;;;;;56.37;48.30;;;10.20;99.90;;;;;;4990035;28;20509;-68
2021/09/18 05:20:36;;;;;;;63.50;47.93;;;10.20;99.90;;;;;;4987911;28;20465;-69
2021/09/18 05:23:05;;;;;;;53.23;47.60;;;10.20;99.90;;;;;;4979761;28;20532;-71
2021/09/18 05:25:33;;;;;;;60.57;49.93;;;10.10;99.90;;;;;;4984534;28;20473;-70
2021/09/18 05:28:01;;;;;;;55.03;49.20;;;10.10;99.90;;;;;;4980514;28;20461;-69
2021/09/18 05:30:29;;;;;;;72.30;51.40;;;10.10;99.90;;;;;;4980265;28;20577;-68
2021/09/18 05:32:56;;;;;;;56.27;47.50;;;10.20;99.90;;;;;;4985235;28;20461;-68
2021/09/18 05:35:24;;;;;;;59.77;48.83;;;10.20;99.90;;;;;;4988784;28;20521;-68
2021/09/18 05:37:51;;;;;;;57.77;47.23;;;10.20;99.90;;;;;;4984683;28;20484;-70
2021/09/18 05:40:24;;;;;;;63.83;49.60;;;10.20;99.90;;;;;;4982149;28;20898;-68
2021/09/18 05:42:51;;;;;;;61.97;48.40;;;10.20;99.90;;;;;;4978300;28;21038;-69
2021/09/18 05:45:20;;;;;;;63.10;49.17;;;10.20;99.90;;;;;;4983602;28;20478;-69
2021/09/18 05:47:48;;;;;;;63.03;49.50;;;10.20;99.90;;;;;;4976739;28;20459;-69
2021/09/18 05:50:16;;;;;;;62.77;48.97;;;10.20;99.90;;;;;;4987237;28;20973;-69
2021/09/18 05:52:44;;;;;;;61.10;48.03;;;10.30;99.90;;;;;;4985051;28;20460;-69
2021/09/18 05:55:11;;;;;;;64.33;51.70;;;10.40;99.90;;;;;;4978785;28;20517;-70
2021/09/18 05:57:39;;;;;;;67.47;52.37;;;10.40;99.90;;;;;;4985411;28;20489;-68
2021/09/18 06:00:07;;;;;;;278.67;56.07;;;10.50;99.90;;;;;;4980969;28;20466;-68
2021/09/18 06:02:34;;;;;;;73.27;53.60;;;10.60;99.90;;;;;;4981966;28;20477;-70
2021/09/18 06:05:01;;;;;;;60.57;50.83;;;10.70;99.90;;;;;;4986272;28;20965;-70
2021/09/18 06:07:28;;;;;;;65.57;51.40;;;10.70;99.90;;;;;;4989277;28;20464;-68
2021/09/18 06:09:55;;;;;;;67.00;52.43;;;10.80;99.90;;;;;;4983814;28;20466;-70
2021/09/18 06:12:22;;;;;;;64.10;52.30;;;10.90;99.90;;;;;;4986051;28;20472;-69
2021/09/18 06:14:53;;;;;;;59.43;49.23;;;11.00;99.90;;;;;;4987719;28;20949;-70
2021/09/18 06:17:20;;;;;;;60.90;49.80;;;11.10;99.90;;;;;;4988706;28;20955;-69
2021/09/18 06:19:48;;;;;;;56.30;48.97;;;11.20;99.90;;;;;;4983165;28;20469;-69
2021/09/18 06:22:15;;;;;;;62.60;50.07;;;11.20;99.90;;;;;;4981074;28;20464;-69
2021/09/18 06:24:43;;;;;;;59.60;49.03;;;11.30;99.90;;;;;;4985449;28;20931;-70
2021/09/18 06:27:10;;;;;;;59.60;49.60;;;11.40;99.90;;;;;;4992108;28;20458;-68
2021/09/18 06:29:39;;;;;;;67.27;53.60;;;11.50;99.90;;;;;;4982856;28;20973;-69
2021/09/18 06:32:08;;;;;;;62.63;52.20;;;11.70;99.90;;;;;;4984193;28;20490;-71
2021/09/18 06:34:37;;;;;;;57.97;51.63;;;11.80;99.90;;;;;;4988933;28;20485;-69
2021/09/18 06:37:04;;;;;;;66.70;51.80;;;12.00;99.90;;;;;;4989065;28;20849;-68
2021/09/18 06:39:31;;;;;;;55.00;49.10;;;12.10;99.90;;;;;;4996480;28;20450;-70
2021/09/18 06:41:58;;;;;;;64.17;53.30;;;12.20;99.90;;;;;;4985561;28;21059;-71
2021/09/18 06:44:25;;;;;;;63.30;51.30;;;12.30;99.90;;;;;;4985087;28;20458;-69
2021/09/18 06:46:53;;;;;;;57.50;51.00;;;12.30;99.90;;;;;;4982565;28;20640;-68
2021/09/18 06:49:23;;;;;;;58.07;51.00;;;12.50;99.90;;;;;;4983506;28;20454;-68
2021/09/18 06:51:50;;;;;;;59.13;52.73;;;12.60;99.90;;;;;;4980419;28;20487;-69
2021/09/18 06:54:17;;;;;;;60.27;51.60;;;12.60;99.90;;;;;;4989966;28;20458;-69
2021/09/18 06:56:45;;;;;;;54.87;47.50;;;12.70;99.90;;;;;;4979583;28;20496;-69
2021/09/18 06:59:12;;;;;;;60.27;50.67;;;12.80;99.90;;;;;;4982353;28;20546;-69
2021/09/18 07:01:39;;;;;;;70.17;52.47;;;13.00;99.90;;;;;;4977090;28;20462;-70
2021/09/18 07:04:06;;;;;;;61.50;52.23;;;13.20;99.90;;;;;;4975551;28;20479;-68
2021/09/18 07:06:35;;;;;;;60.50;51.60;;;13.30;99.90;;;;;;4989858;28;20814;-68
2021/09/18 07:09:02;;;;;;;65.90;52.00;;;13.40;99.90;;;;;;4983189;28;20517;-70
2021/09/18 07:11:30;;;;;;;72.63;57.60;;;13.50;99.90;;;;;;4983808;28;20487;-69
2021/09/18 07:14:00;;;;;;;76.87;60.90;;;13.60;99.90;;;;;;4985649;28;20458;-68
2021/09/18 07:16:27;;;;;;;72.90;57.17;;;13.70;99.90;;;;;;4933470;28;20464;-68
2021/09/18 07:18:54;;;;;;;76.97;61.20;;;13.90;99.90;;;;;;4987245;28;20475;-68
2021/09/18 07:21:21;;;;;;;78.83;58.43;;;14.00;99.90;;;;;;4982137;28;20472;-69
2021/09/18 07:23:49;;;;;;;74.10;58.90;;;14.10;99.90;;;;;;4974492;28;20460;-69
2021/09/18 07:26:16;;;;;;;70.87;55.73;;;14.20;99.90;;;;;;4981520;28;20927;-68
2021/09/18 07:28:43;;;;;;;70.90;56.27;;;14.30;99.90;;;;;;4978419;28;20464;-69
2021/09/18 07:31:10;;;;;;;68.03;55.70;;;14.40;99.90;;;;;;4985851;28;20503;-69
2021/09/18 07:33:38;;;;;;;67.63;57.07;;;14.50;99.90;;;;;;4988879;28;20490;-68
2021/09/18 07:36:07;;;;;;;70.70;57.63;;;14.40;99.90;;;;;;4988037;28;20535;-70
2021/09/18 07:38:35;;;;;;;75.00;59.13;;;14.20;99.90;;;;;;4978663;28;20936;-69
2021/09/18 07:41:03;;;;;;;73.33;56.80;;;14.20;99.90;;;;;;4977607;28;20463;-68
2021/09/18 07:43:31;;;;;;;67.50;56.10;;;14.30;99.90;;;;;;4982795;28;20605;-68
2021/09/18 07:45:58;;;;;;;72.63;56.77;;;14.40;99.90;;;;;;4978717;28;20462;-70
2021/09/18 07:48:26;;;;;;;86.87;61.13;;;14.70;99.90;;;;;;4986161;28;20548;-70
2021/09/18 07:50:53;;;;;;;92.00;67.73;;;14.90;99.90;;;;;;4978882;28;20496;-70
2021/09/18 07:53:19;;;;;;;109.93;76.83;;;15.20;99.90;;;;;;4983673;28;20446;-69
2021/09/18 07:55:46;;;;;;;105.60;78.17;;;15.40;99.90;;;;;;4982120;28;20475;-69
2021/09/18 07:58:15;;;;;;;113.83;76.17;;;15.50;99.90;;;;;;4987325;28;20927;-69
2021/09/18 08:00:43;;;;;;;105.37;71.57;;;15.80;99.90;;;;;;4984059;28;20544;-70
2021/09/18 08:03:09;;;;;;;101.37;70.47;;;16.00;99.90;;;;;;4987060;28;20939;-70
2021/09/18 08:05:36;;;;;;;107.40;70.37;;;16.10;99.90;;;;;;4983626;28;20877;-68
2021/09/18 08:08:04;;;;;;;104.90;73.40;;;16.20;99.90;;;;;;4983885;28;20461;-69
2021/09/18 08:10:32;;;;;;;99.07;71.10;;;16.30;99.90;;;;;;4979193;28;20522;-68
2021/09/18 08:13:00;;;;;;;108.17;75.23;;;16.50;99.90;;;;;;4982731;28;21005;-68
2021/09/18 08:15:28;;;;;;;109.97;73.63;;;16.50;99.90;;;;;;4980666;28;20545;-69
2021/09/18 08:17:56;;;;;;;100.47;68.27;;;16.70;99.90;;;;;;4979684;28;20664;-68
2021/09/18 08:20:23;;;;;;;120.13;77.47;;;16.80;99.90;;;;;;4981863;28;20485;-68
2021/09/18 08:22:51;;;;;;;95.70;68.00;;;17.00;99.90;;;;;;4980985;28;20459;-68
2021/09/18 08:25:18;;;;;;;95.97;66.43;;;17.00;99.90;;;;;;4985123;28;20453;-67
2021/09/18 08:27:46;;;;;;;109.33;75.77;;;17.20;99.90;;;;;;4981175;28;20462;-68
2021/09/18 08:30:14;;;;;;;99.50;72.60;;;17.30;99.90;;;;;;4976976;28;20467;-68
2021/09/18 08:32:43;;;;;;;79.57;64.13;;;17.50;99.90;;;;;;4976805;28;20490;-69
2021/09/18 08:35:12;;;;;;;99.70;72.97;;;17.50;99.90;;;;;;4979671;28;20481;-69
2021/09/18 08:37:40;;;;;;;101.70;72.00;;;17.50;99.90;;;;;;4976863;28;20465;-68
2021/09/18 08:40:08;;;;;;;99.30;71.50;;;17.70;99.90;;;;;;4987906;28;20465;-69
2021/09/18 08:42:38;;;;;;;97.83;71.50;;;17.80;99.90;;;;;;4978661;28;20472;-69
2021/09/18 08:45:10;;;;;;;106.17;76.10;;;17.70;99.90;;;;;;4976032;28;20456;-69
2021/09/18 08:47:41;;;;;;;99.27;74.67;;;17.90;99.90;;;;;;4985445;28;20463;-69
2021/09/18 08:50:15;;;;;;;97.20;73.73;;;18.10;99.90;;;;;;4976014;28;20467;-68
2021/09/18 08:52:43;;;;;;;94.83;68.23;;;18.30;99.90;;;;;;4980743;28;20536;-68
2021/09/18 08:55:11;;;;;;;101.77;72.90;;;18.50;99.90;;;;;;4978543;28;20475;-68
2021/09/18 08:57:38;;;;;;;92.00;70.23;;;18.70;99.90;;;;;;4983266;28;20467;-69
2021/09/18 09:00:07;;;;;;;78.50;58.67;;;18.80;99.90;;;;;;4984993;28;20509;-69
2021/09/18 09:02:38;;;;;;;102.87;68.63;;;18.90;99.90;;;;;;4986674;28;20542;-72
2021/09/18 09:05:07;;;;;;;88.30;68.87;;;19.10;99.90;;;;;;4978887;28;20958;-68
2021/09/18 09:07:37;;;;;;;88.87;68.93;;;19.20;99.90;;;;;;4987683;28;20494;-69
2021/09/18 09:10:06;;;;;;;88.53;65.90;;;19.20;99.90;;;;;;4990320;28;20470;-68
2021/09/18 09:12:36;;;;;;;85.80;62.90;;;19.50;99.90;;;;;;4984334;28;20957;-71
2021/09/18 09:15:06;;;;;;;98.57;67.20;;;19.80;99.90;;;;;;4978747;28;20542;-69
2021/09/18 09:17:36;;;;;;;78.23;60.30;;;19.80;99.90;;;;;;4980875;28;20480;-69
2021/09/18 09:20:06;;;;;;;85.27;61.47;;;19.90;99.90;;;;;;4992749;28;20464;-71
2021/09/18 09:22:40;;;;;;;83.10;58.03;;;20.20;99.90;;;;;;4991505;28;20473;-71
2021/09/18 09:25:25;;;;;;;80.27;58.77;;;20.50;99.90;;;;;;4989604;28;20956;-69
2021/09/18 09:27:53;;;;;;;67.30;51.73;;;20.90;99.90;;;;;;4983400;28;20459;-69
2021/09/18 09:30:28;;;;;;;69.00;49.43;;;21.60;99.90;;;;;;4986577;28;20463;-71
2021/09/18 09:32:55;;;;;;;59.13;50.23;;;22.60;99.90;;;;;;4986882;28;20565;-70
2021/09/18 09:35:27;;;;;;;56.00;47.77;;;23.20;99.90;;;;;;4975944;28;20483;-70
2021/09/18 09:37:57;;;;;;;67.10;50.93;;;23.60;99.90;;;;;;4990335;28;20468;-69
2021/09/18 09:40:33;;;;;;;56.80;48.60;;;24.20;99.90;;;;;;4984140;28;20968;-70
2021/09/18 09:43:00;;;;;;;66.23;49.97;;;24.80;99.90;;;;;;4981491;28;20466;-70
2021/09/18 09:45:27;;;;;;;58.50;47.40;;;24.90;99.90;;;;;;4981723;28;20461;-72
2021/09/18 09:48:11;;;;;;;52.47;46.93;;;25.50;99.90;;;;;;4988748;28;20463;-72
2021/09/18 09:50:41;;;;;;;56.83;46.47;;;26.20;99.90;;;;;;4985331;28;20484;-70
2021/09/18 09:53:23;;;;;;;52.80;44.93;;;25.90;99.90;;;;;;4977561;28;20496;-71
2021/09/18 09:55:51;;;;;;;50.87;42.60;;;26.10;99.90;;;;;;4982714;28;20866;-70
2021/09/18 09:58:18;;;;;;;57.77;38.87;;;27.10;99.90;;;;;;4973610;28;21094;-70
2021/09/18 10:00:49;;;;;;;52.57;44.10;;;27.40;99.90;;;;;;4977576;28;20462;-71
2021/09/18 10:03:19;;;;;;;43.80;39.00;;;27.30;99.90;;;;;;4976605;28;20458;-71
2021/09/18 10:05:47;;;;;;;48.50;41.33;;;27.80;99.90;;;;;;4980657;28;20466;-71
2021/09/18 10:08:19;;;;;;;50.00;41.30;;;27.90;99.90;;;;;;4981793;28;20470;-71
2021/09/18 10:10:47;;;;;;;49.00;40.80;;;28.50;99.90;;;;;;4982291;28;20478;-71
2021/09/18 10:13:15;;;;;;;54.90;41.57;;;29.10;99.90;;;;;;4983298;28;20493;-70
2021/09/18 10:15:44;;;;;;;50.53;45.13;;;29.20;99.90;;;;;;4981264;28;20481;-71
2021/09/18 10:18:13;;;;;;;47.20;41.97;;;28.70;99.90;;;;;;4984734;28;20451;-73
2021/09/18 10:23:27;;;;;;;35.80;32.80;;;27.90;99.90;;;;;;4985258;28;20460;-71
2021/09/18 10:25:55;;;;;;;42.67;38.07;;;27.80;99.90;;;;;;4975892;28;21246;-72
2021/09/18 10:28:24;;;;;;;40.87;36.43;;;28.20;99.90;;;;;;4981912;28;20469;-71
2021/09/18 10:30:54;;;;;;;41.43;37.50;;;27.90;99.90;;;;;;4987768;28;20854;-71
2021/09/18 10:33:34;;;;;;;38.10;34.50;;;27.50;99.90;;;;;;4984515;28;20491;-72
2021/09/18 10:36:04;;;;;;;32.50;29.70;;;28.20;99.90;;;;;;4981157;28;20477;-71
2021/09/18 10:38:36;;;;;;;31.10;28.20;;;28.10;99.90;;;;;;4989092;28;20962;-72
2021/09/18 10:41:07;;;;;;;31.10;28.40;;;27.50;99.90;;;;;;4988108;28;20468;-72
2021/09/18 10:43:37;;;;;;;31.60;28.80;;;27.10;99.90;;;;;;4979804;28;20454;-72
2021/09/18 10:46:07;;;;;;;31.83;28.90;;;26.60;99.90;;;;;;4973780;28;20463;-73
2021/09/18 10:48:44;;;;;;;31.70;28.90;;;27.00;99.90;;;;;;4982800;28;20506;-71
2021/09/18 10:51:36;;;;;;;31.43;28.33;;;27.00;99.90;;;;;;4980644;28;20459;-71
2021/09/18 10:54:11;;;;;;;30.83;27.90;;;26.90;99.90;;;;;;4984926;28;20819;-71
2021/09/18 10:57:06;;;;;;;32.33;29.50;;;26.70;99.90;;;;;;4986507;28;20556;-71
2021/09/18 10:59:45;;;;;;;29.40;26.80;;;27.20;99.90;;;;;;4983306;28;20822;-71
2021/09/18 11:02:46;;;;;;;27.60;25.40;;;28.20;99.90;;;;;;4978745;28;20761;-73
2021/09/18 11:05:47;;;;;;;24.63;22.73;;;28.20;99.90;;;;;;4976875;28;20793;-73
2021/09/18 11:08:29;;;;;;;23.57;20.83;;;28.70;98.40;;;;;;4983988;28;20949;-70
2021/09/18 11:11:00;;;;;;;22.20;20.60;;;29.60;97.50;;;;;;4983732;28;20896;-71
2021/09/18 11:13:32;;;;;;;24.33;22.33;;;30.20;96.50;;;;;;4979196;28;20494;-70
2021/09/18 11:16:04;;;;;;;21.47;19.70;;;30.40;96.40;;;;;;4982385;28;20463;-70
2021/09/18 11:18:35;;;;;;;19.17;17.97;;;30.00;95.80;;;;;;4987655;28;20961;-70
2021/09/18 11:21:07;;;;;;;20.73;19.13;;;30.40;95.00;;;;;;4972367;28;20475;-70
2021/09/18 11:23:37;;;;;;;21.80;20.20;;;30.90;94.30;;;;;;4978006;28;20471;-70
2021/09/18 11:26:34;;;;;;;24.07;22.17;;;30.80;93.00;;;;;;4978784;28;20467;-71
2021/09/18 11:29:18;;;;;;;27.20;24.83;;;31.40;94.40;;;;;;4980315;28;20467;-71
2021/09/18 11:32:11;;;;;;;26.40;24.17;;;30.80;92.90;;;;;;4980084;28;21019;-72
2021/09/18 11:34:40;;;;;;;23.70;21.90;;;30.80;93.40;;;;;;4973316;28;21021;-71
2021/09/18 11:37:10;;;;;;;25.20;23.40;;;31.70;90.40;;;;;;4980033;28;20472;-72
2021/09/18 11:39:42;;;;;;;22.23;20.70;;;30.90;91.70;;;;;;4977259;28;20466;-71
2021/09/18 11:42:39;;;;;;;17.63;16.53;;;30.40;90.30;;;;;;4987462;28;20457;-71
2021/09/18 11:45:12;;;;;;;20.43;19.03;;;30.00;89.30;;;;;;4985056;28;20595;-70
2021/09/18 11:47:42;;;;;;;20.20;18.80;;;29.60;91.40;;;;;;4988871;28;20473;-70
2021/09/18 11:50:25;;;;;;;20.90;19.30;;;28.70;91.80;;;;;;4984669;28;20459;-72
2021/09/18 11:52:53;;;;;;;20.17;18.87;;;28.40;92.70;;;;;;4978884;28;20505;-71
2021/09/18 11:55:45;;;;;;;20.33;18.87;;;28.90;91.50;;;;;;4977562;28;21052;-70
2021/09/18 11:58:16;;;;;;;22.13;20.43;;;28.90;91.10;;;;;;4973868;28;20466;-71
2021/09/18 12:00:49;;;;;;;22.27;20.53;;;29.40;90.60;;;;;;4987608;28;20507;-71
2021/09/18 12:03:22;;;;;;;22.97;20.83;;;30.30;90.70;;;;;;4978168;28;20899;-71
2021/09/18 12:05:53;;;;;;;22.30;20.33;;;29.70;91.60;;;;;;4984986;28;20461;-72
2021/09/18 12:08:23;;;;;;;22.67;21.17;;;29.80;92.30;;;;;;4974008;28;20467;-73
2021/09/18 12:10:53;;;;;;;22.87;21.37;;;30.00;91.40;;;;;;4979201;28;20482;-72
2021/09/18 12:13:23;;;;;;;23.87;21.87;;;29.50;91.10;;;;;;4974586;28;20490;-71
2021/09/18 12:15:52;;;;;;;20.03;18.63;;;28.80;91.10;;;;;;4975301;28;20510;-71
2021/09/18 12:18:25;;;;;;;19.23;17.83;;;29.20;92.00;;;;;;4977192;28;20475;-72
2021/09/18 12:20:55;;;;;;;20.47;19.07;;;30.00;90.60;;;;;;4972638;28;20553;-72
2021/09/18 12:23:22;;;;;;;20.30;18.70;;;30.40;90.50;;;;;;4977020;28;20458;-72
2021/09/18 12:25:55;;;;;;;20.50;19.03;;;30.40;90.80;;;;;;4974664;28;20466;-72
2021/09/18 12:28:24;;;;;;;19.50;18.30;;;29.60;89.20;;;;;;4979389;28;20856;-72
2021/09/18 12:30:51;;;;;;;17.97;16.73;;;28.70;90.40;;;;;;4981483;28;20481;-71
2021/09/18 12:33:28;;;;;;;17.53;15.90;;;28.20;91.60;;;;;;4972167;28;21458;-72
2021/09/18 12:36:04;;;;;;;16.40;15.60;;;28.10;91.50;;;;;;4973234;28;20466;-71
2021/09/18 12:38:31;;;;;;;17.90;16.80;;;27.90;91.00;;;;;;4980353;28;20473;-73
2021/09/18 12:41:02;;;;;;;17.67;16.50;;;27.60;91.00;;;;;;4984722;28;20563;-71